sensor_id;sensor_type;location;lat;lon;timestamp;P1;durP1;ratioP1;P2;durP2;ratioP2
80195;SDS011;69516;42.050;21.516;2024-02-04T00:00:08;43.78;;;22.75;;
80195;SDS011;69516;42.050;21.516;2024-02-04T00:02:36;44.25;;;21.80;;
80195;SDS011;69516;42.050;21.516;2024-02-04T00:05:03;40.10;;;20.08;;
80195;SDS011;69516;42.050;21.516;2024-02-04T00:07:29;38.47;;;20.83;;
80195;SDS011;69516;42.050;21.516;2024-02-04T00:09:56;37.90;;;20.98;;
80195;SDS011;69516;42.050;21.516;2024-02-04T00:12:22;36.75;;;20.25;;
80195;SDS011;69516;42.050;21.516;2024-02-04T00:14:49;39.58;;;20.50;;
80195;SDS011;69516;42.050;21.516;2024-02-04T00:17:16;38.15;;;20.60;;
80195;SDS011;69516;42.050;21.516;2024-02-04T00:19:42;33.60;;;18.92;;
80195;SDS011;69516;42.050;21.516;2024-02-04T00:22:09;33.85;;;19.05;;
80195;SDS011;69516;42.050;21.516;2024-02-04T00:24:35;32.50;;;18.08;;
80195;SDS011;69516;42.050;21.516;2024-02-04T00:27:01;34.67;;;18.55;;
80195;SDS011;69516;42.050;21.516;2024-02-04T00:29:27;36.33;;;18.13;;
80195;SDS011;69516;42.050;21.516;2024-02-04T00:31:54;34.85;;;17.92;;
80195;SDS011;69516;42.050;21.516;2024-02-04T00:34:20;35.47;;;19.45;;
80195;SDS011;69516;42.050;21.516;2024-02-04T00:36:46;39.22;;;20.42;;
80195;SDS011;69516;42.050;21.516;2024-02-04T00:39:12;40.58;;;20.90;;
80195;SDS011;69516;42.050;21.516;2024-02-04T00:41:38;39.03;;;21.52;;
80195;SDS011;69516;42.050;21.516;2024-02-04T00:44:05;38.83;;;21.15;;
80195;SDS011;69516;42.050;21.516;2024-02-04T00:46:31;44.33;;;21.98;;
80195;SDS011;69516;42.050;21.516;2024-02-04T00:48:57;40.88;;;22.00;;
80195;SDS011;69516;42.050;21.516;2024-02-04T00:51:24;39.97;;;21.10;;
80195;SDS011;69516;42.050;21.516;2024-02-04T00:53:50;38.80;;;21.65;;
80195;SDS011;69516;42.050;21.516;2024-02-04T00:56:16;38.05;;;21.58;;
80195;SDS011;69516;42.050;21.516;2024-02-04T00:58:42;42.95;;;25.45;;
80195;SDS011;69516;42.050;21.516;2024-02-04T01:01:08;40.47;;;21.52;;
80195;SDS011;69516;42.050;21.516;2024-02-04T01:03:34;50.42;;;24.88;;
80195;SDS011;69516;42.050;21.516;2024-02-04T01:06:00;45.53;;;24.02;;
80195;SDS011;69516;42.050;21.516;2024-02-04T01:08:26;53.00;;;26.83;;
80195;SDS011;69516;42.050;21.516;2024-02-04T01:10:53;45.60;;;25.05;;
80195;SDS011;69516;42.050;21.516;2024-02-04T01:13:19;41.63;;;23.42;;
80195;SDS011;69516;42.050;21.516;2024-02-04T01:15:45;39.38;;;21.08;;
80195;SDS011;69516;42.050;21.516;2024-02-04T01:18:11;41.65;;;21.83;;
80195;SDS011;69516;42.050;21.516;2024-02-04T01:20:37;42.67;;;22.08;;
80195;SDS011;69516;42.050;21.516;2024-02-04T01:23:03;42.47;;;21.13;;
80195;SDS011;69516;42.050;21.516;2024-02-04T01:25:29;37.55;;;20.23;;
80195;SDS011;69516;42.050;21.516;2024-02-04T01:27:56;39.35;;;20.00;;
80195;SDS011;69516;42.050;21.516;2024-02-04T01:30:22;38.53;;;20.02;;
80195;SDS011;69516;42.050;21.516;2024-02-04T01:32:48;42.85;;;22.70;;
80195;SDS011;69516;42.050;21.516;2024-02-04T01:35:14;35.60;;;21.20;;
80195;SDS011;69516;42.050;21.516;2024-02-04T01:37:40;39.72;;;20.63;;
80195;SDS011;69516;42.050;21.516;2024-02-04T01:40:08;41.20;;;19.90;;
80195;SDS011;69516;42.050;21.516;2024-02-04T01:42:35;35.95;;;20.08;;
80195;SDS011;69516;42.050;21.516;2024-02-04T01:45:01;41.60;;;22.98;;
80195;SDS011;69516;42.050;21.516;2024-02-04T01:47:27;43.53;;;24.92;;
80195;SDS011;69516;42.050;21.516;2024-02-04T01:49:53;39.80;;;21.67;;
80195;SDS011;69516;42.050;21.516;2024-02-04T01:52:19;37.28;;;21.48;;
80195;SDS011;69516;42.050;21.516;2024-02-04T01:54:45;40.55;;;22.60;;
80195;SDS011;69516;42.050;21.516;2024-02-04T01:57:12;41.55;;;22.17;;
80195;SDS011;69516;42.050;21.516;2024-02-04T01:59:39;42.10;;;21.80;;
80195;SDS011;69516;42.050;21.516;2024-02-04T02:02:05;41.60;;;20.90;;
80195;SDS011;69516;42.050;21.516;2024-02-04T02:04:32;44.00;;;22.85;;
80195;SDS011;69516;42.050;21.516;2024-02-04T02:06:58;38.95;;;21.33;;
80195;SDS011;69516;42.050;21.516;2024-02-04T02:09:25;37.03;;;21.95;;
80195;SDS011;69516;42.050;21.516;2024-02-04T02:12:11;39.63;;;22.02;;
80195;SDS011;69516;42.050;21.516;2024-02-04T02:14:39;42.45;;;22.90;;
80195;SDS011;69516;42.050;21.516;2024-02-04T02:17:07;45.65;;;24.98;;
80195;SDS011;69516;42.050;21.516;2024-02-04T02:22:30;48.15;;;25.13;;
80195;SDS011;69516;42.050;21.516;2024-02-04T02:25:00;45.25;;;24.38;;
80195;SDS011;69516;42.050;21.516;2024-02-04T02:27:28;43.97;;;24.08;;
80195;SDS011;69516;42.050;21.516;2024-02-04T02:29:55;46.00;;;25.00;;
80195;SDS011;69516;42.050;21.516;2024-02-04T02:32:21;46.28;;;25.50;;
80195;SDS011;69516;42.050;21.516;2024-02-04T02:34:47;49.55;;;28.52;;
80195;SDS011;69516;42.050;21.516;2024-02-04T02:39:59;45.08;;;25.35;;
80195;SDS011;69516;42.050;21.516;2024-02-04T02:42:28;39.72;;;22.63;;
80195;SDS011;69516;42.050;21.516;2024-02-04T02:44:54;42.75;;;24.73;;
80195;SDS011;69516;42.050;21.516;2024-02-04T02:47:22;42.97;;;22.65;;
80195;SDS011;69516;42.050;21.516;2024-02-04T02:49:50;45.70;;;24.40;;
80195;SDS011;69516;42.050;21.516;2024-02-04T02:52:17;40.95;;;22.75;;
80195;SDS011;69516;42.050;21.516;2024-02-04T02:54:44;42.40;;;23.75;;
80195;SDS011;69516;42.050;21.516;2024-02-04T02:57:10;47.38;;;26.00;;
80195;SDS011;69516;42.050;21.516;2024-02-04T02:59:36;46.78;;;24.17;;
80195;SDS011;69516;42.050;21.516;2024-02-04T03:02:02;48.28;;;24.30;;
80195;SDS011;69516;42.050;21.516;2024-02-04T03:04:29;38.38;;;20.77;;
80195;SDS011;69516;42.050;21.516;2024-02-04T03:06:55;32.22;;;18.95;;
80195;SDS011;69516;42.050;21.516;2024-02-04T03:09:21;34.47;;;20.23;;
80195;SDS011;69516;42.050;21.516;2024-02-04T03:11:47;40.33;;;20.48;;
80195;SDS011;69516;42.050;21.516;2024-02-04T03:14:15;38.80;;;20.92;;
80195;SDS011;69516;42.050;21.516;2024-02-04T03:16:43;34.42;;;19.42;;
80195;SDS011;69516;42.050;21.516;2024-02-04T03:19:10;42.00;;;21.38;;
80195;SDS011;69516;42.050;21.516;2024-02-04T03:21:36;41.72;;;22.80;;
80195;SDS011;69516;42.050;21.516;2024-02-04T03:24:02;43.30;;;23.90;;
80195;SDS011;69516;42.050;21.516;2024-02-04T03:26:28;43.60;;;23.27;;
80195;SDS011;69516;42.050;21.516;2024-02-04T03:28:54;45.28;;;24.05;;
80195;SDS011;69516;42.050;21.516;2024-02-04T03:31:21;38.72;;;21.15;;
80195;SDS011;69516;42.050;21.516;2024-02-04T03:33:47;44.67;;;22.73;;
80195;SDS011;69516;42.050;21.516;2024-02-04T03:36:18;41.05;;;21.33;;
80195;SDS011;69516;42.050;21.516;2024-02-04T03:38:44;36.17;;;21.80;;
80195;SDS011;69516;42.050;21.516;2024-02-04T03:41:10;38.08;;;20.73;;
80195;SDS011;69516;42.050;21.516;2024-02-04T03:43:37;40.88;;;22.10;;
80195;SDS011;69516;42.050;21.516;2024-02-04T03:46:03;35.80;;;21.52;;
80195;SDS011;69516;42.050;21.516;2024-02-04T03:48:29;39.40;;;20.75;;
80195;SDS011;69516;42.050;21.516;2024-02-04T03:50:55;39.83;;;20.60;;
80195;SDS011;69516;42.050;21.516;2024-02-04T03:53:21;38.70;;;22.02;;
80195;SDS011;69516;42.050;21.516;2024-02-04T03:58:17;39.70;;;21.35;;
80195;SDS011;69516;42.050;21.516;2024-02-04T04:00:43;39.45;;;22.30;;
80195;SDS011;69516;42.050;21.516;2024-02-04T04:03:09;39.70;;;22.45;;
80195;SDS011;69516;42.050;21.516;2024-02-04T04:05:35;42.15;;;23.70;;
80195;SDS011;69516;42.050;21.516;2024-02-04T04:08:01;48.85;;;25.77;;
80195;SDS011;69516;42.050;21.516;2024-02-04T04:10:27;44.95;;;24.65;;
80195;SDS011;69516;42.050;21.516;2024-02-04T04:12:53;44.53;;;24.33;;
80195;SDS011;69516;42.050;21.516;2024-02-04T04:15:19;46.05;;;25.70;;
80195;SDS011;69516;42.050;21.516;2024-02-04T04:17:45;44.50;;;25.33;;
80195;SDS011;69516;42.050;21.516;2024-02-04T04:20:12;44.25;;;22.90;;
80195;SDS011;69516;42.050;21.516;2024-02-04T04:22:40;47.63;;;25.98;;
80195;SDS011;69516;42.050;21.516;2024-02-04T04:25:07;45.10;;;23.80;;
80195;SDS011;69516;42.050;21.516;2024-02-04T04:27:33;38.33;;;21.42;;
80195;SDS011;69516;42.050;21.516;2024-02-04T04:29:59;32.47;;;18.63;;
80195;SDS011;69516;42.050;21.516;2024-02-04T04:32:26;34.60;;;19.17;;
80195;SDS011;69516;42.050;21.516;2024-02-04T04:34:52;35.08;;;19.38;;
80195;SDS011;69516;42.050;21.516;2024-02-04T04:37:20;38.38;;;18.70;;
80195;SDS011;69516;42.050;21.516;2024-02-04T04:39:47;33.42;;;16.45;;
80195;SDS011;69516;42.050;21.516;2024-02-04T04:42:13;31.13;;;17.40;;
80195;SDS011;69516;42.050;21.516;2024-02-04T04:44:39;29.85;;;16.85;;
80195;SDS011;69516;42.050;21.516;2024-02-04T04:47:05;29.88;;;16.25;;
80195;SDS011;69516;42.050;21.516;2024-02-04T04:49:31;30.40;;;16.77;;
80195;SDS011;69516;42.050;21.516;2024-02-04T04:51:57;36.05;;;19.77;;
80195;SDS011;69516;42.050;21.516;2024-02-04T04:54:24;36.72;;;18.75;;
80195;SDS011;69516;42.050;21.516;2024-02-04T04:56:50;37.38;;;20.85;;
80195;SDS011;69516;42.050;21.516;2024-02-04T04:59:16;40.60;;;21.08;;
80195;SDS011;69516;42.050;21.516;2024-02-04T05:01:48;37.88;;;22.63;;
80195;SDS011;69516;42.050;21.516;2024-02-04T05:04:15;42.35;;;22.40;;
80195;SDS011;69516;42.050;21.516;2024-02-04T05:06:41;43.65;;;23.77;;
80195;SDS011;69516;42.050;21.516;2024-02-04T05:09:07;41.58;;;23.20;;
80195;SDS011;69516;42.050;21.516;2024-02-04T05:11:34;38.30;;;21.20;;
80195;SDS011;69516;42.050;21.516;2024-02-04T05:14:00;39.78;;;20.85;;
80195;SDS011;69516;42.050;21.516;2024-02-04T05:16:26;42.30;;;24.45;;
80195;SDS011;69516;42.050;21.516;2024-02-04T05:18:52;38.00;;;22.83;;
80195;SDS011;69516;42.050;21.516;2024-02-04T05:21:19;39.50;;;21.85;;
80195;SDS011;69516;42.050;21.516;2024-02-04T05:23:45;39.08;;;21.00;;
80195;SDS011;69516;42.050;21.516;2024-02-04T05:26:11;40.90;;;21.75;;
80195;SDS011;69516;42.050;21.516;2024-02-04T05:28:38;43.75;;;24.75;;
80195;SDS011;69516;42.050;21.516;2024-02-04T05:31:04;44.78;;;24.77;;
80195;SDS011;69516;42.050;21.516;2024-02-04T05:33:30;43.17;;;23.73;;
80195;SDS011;69516;42.050;21.516;2024-02-04T05:35:56;44.75;;;23.30;;
80195;SDS011;69516;42.050;21.516;2024-02-04T05:38:22;51.60;;;27.60;;
80195;SDS011;69516;42.050;21.516;2024-02-04T05:40:48;47.75;;;27.27;;
80195;SDS011;69516;42.050;21.516;2024-02-04T05:43:15;48.35;;;25.05;;
80195;SDS011;69516;42.050;21.516;2024-02-04T05:45:41;48.92;;;25.52;;
80195;SDS011;69516;42.050;21.516;2024-02-04T05:48:08;44.03;;;23.70;;
80195;SDS011;69516;42.050;21.516;2024-02-04T05:50:34;41.78;;;24.67;;
80195;SDS011;69516;42.050;21.516;2024-02-04T05:53:00;43.85;;;25.23;;
80195;SDS011;69516;42.050;21.516;2024-02-04T05:55:26;47.60;;;27.08;;
80195;SDS011;69516;42.050;21.516;2024-02-04T05:57:52;51.67;;;28.42;;
80195;SDS011;69516;42.050;21.516;2024-02-04T06:00:18;46.88;;;26.08;;
80195;SDS011;69516;42.050;21.516;2024-02-04T06:02:45;48.30;;;25.75;;
80195;SDS011;69516;42.050;21.516;2024-02-04T06:05:11;47.25;;;27.83;;
80195;SDS011;69516;42.050;21.516;2024-02-04T06:07:37;54.55;;;27.10;;
80195;SDS011;69516;42.050;21.516;2024-02-04T06:10:04;50.58;;;27.83;;
80195;SDS011;69516;42.050;21.516;2024-02-04T06:12:30;50.90;;;28.23;;
80195;SDS011;69516;42.050;21.516;2024-02-04T06:14:56;53.78;;;30.73;;
80195;SDS011;69516;42.050;21.516;2024-02-04T06:17:23;52.00;;;28.25;;
80195;SDS011;69516;42.050;21.516;2024-02-04T06:19:49;55.25;;;29.70;;
80195;SDS011;69516;42.050;21.516;2024-02-04T06:22:15;58.95;;;32.58;;
80195;SDS011;69516;42.050;21.516;2024-02-04T06:24:41;56.45;;;30.08;;
80195;SDS011;69516;42.050;21.516;2024-02-04T06:27:07;51.92;;;27.77;;
80195;SDS011;69516;42.050;21.516;2024-02-04T06:29:34;48.17;;;28.40;;
80195;SDS011;69516;42.050;21.516;2024-02-04T06:32:00;48.17;;;27.38;;
80195;SDS011;69516;42.050;21.516;2024-02-04T06:34:26;45.03;;;26.58;;
80195;SDS011;69516;42.050;21.516;2024-02-04T06:36:52;51.13;;;29.70;;
80195;SDS011;69516;42.050;21.516;2024-02-04T06:39:18;51.17;;;29.13;;
80195;SDS011;69516;42.050;21.516;2024-02-04T06:41:44;61.50;;;32.97;;
80195;SDS011;69516;42.050;21.516;2024-02-04T06:44:11;80.32;;;41.53;;
80195;SDS011;69516;42.050;21.516;2024-02-04T06:46:37;60.83;;;33.22;;
80195;SDS011;69516;42.050;21.516;2024-02-04T06:49:03;59.47;;;33.58;;
80195;SDS011;69516;42.050;21.516;2024-02-04T06:51:29;55.72;;;32.67;;
80195;SDS011;69516;42.050;21.516;2024-02-04T06:53:55;60.13;;;33.38;;
80195;SDS011;69516;42.050;21.516;2024-02-04T06:56:22;62.15;;;33.88;;
80195;SDS011;69516;42.050;21.516;2024-02-04T06:58:48;78.07;;;42.63;;
80195;SDS011;69516;42.050;21.516;2024-02-04T07:01:14;88.13;;;42.63;;
80195;SDS011;69516;42.050;21.516;2024-02-04T07:03:40;72.05;;;35.05;;
80195;SDS011;69516;42.050;21.516;2024-02-04T07:06:06;66.30;;;36.25;;
80195;SDS011;69516;42.050;21.516;2024-02-04T07:08:32;71.78;;;36.40;;
80195;SDS011;69516;42.050;21.516;2024-02-04T07:10:59;63.65;;;35.92;;
80195;SDS011;69516;42.050;21.516;2024-02-04T07:13:25;57.90;;;31.27;;
80195;SDS011;69516;42.050;21.516;2024-02-04T07:15:51;63.15;;;31.88;;
80195;SDS011;69516;42.050;21.516;2024-02-04T07:18:17;55.20;;;31.58;;
80195;SDS011;69516;42.050;21.516;2024-02-04T07:20:46;53.53;;;32.58;;
80195;SDS011;69516;42.050;21.516;2024-02-04T07:23:13;50.10;;;28.42;;
80195;SDS011;69516;42.050;21.516;2024-02-04T07:25:39;50.95;;;31.10;;
80195;SDS011;69516;42.050;21.516;2024-02-04T07:28:05;52.05;;;30.23;;
80195;SDS011;69516;42.050;21.516;2024-02-04T07:30:31;62.15;;;33.83;;
80195;SDS011;69516;42.050;21.516;2024-02-04T07:32:57;65.20;;;34.13;;
80195;SDS011;69516;42.050;21.516;2024-02-04T07:35:23;64.85;;;34.38;;
80195;SDS011;69516;42.050;21.516;2024-02-04T07:37:49;62.97;;;34.88;;
80195;SDS011;69516;42.050;21.516;2024-02-04T07:40:16;66.72;;;35.60;;
80195;SDS011;69516;42.050;21.516;2024-02-04T07:42:42;64.95;;;37.60;;
80195;SDS011;69516;42.050;21.516;2024-02-04T07:45:08;59.33;;;36.55;;
80195;SDS011;69516;42.050;21.516;2024-02-04T07:47:35;66.57;;;35.20;;
80195;SDS011;69516;42.050;21.516;2024-02-04T07:50:01;59.97;;;33.92;;
80195;SDS011;69516;42.050;21.516;2024-02-04T07:52:28;63.08;;;35.75;;
80195;SDS011;69516;42.050;21.516;2024-02-04T07:54:54;61.13;;;34.85;;
80195;SDS011;69516;42.050;21.516;2024-02-04T07:57:20;63.03;;;35.08;;
80195;SDS011;69516;42.050;21.516;2024-02-04T07:59:46;58.25;;;35.63;;
80195;SDS011;69516;42.050;21.516;2024-02-04T08:02:12;60.38;;;34.78;;
80195;SDS011;69516;42.050;21.516;2024-02-04T08:04:41;65.50;;;35.90;;
80195;SDS011;69516;42.050;21.516;2024-02-04T08:07:07;61.08;;;36.53;;
80195;SDS011;69516;42.050;21.516;2024-02-04T08:09:33;60.72;;;35.97;;
80195;SDS011;69516;42.050;21.516;2024-02-04T08:12:00;65.10;;;37.40;;
80195;SDS011;69516;42.050;21.516;2024-02-04T08:14:26;69.38;;;38.70;;
80195;SDS011;69516;42.050;21.516;2024-02-04T08:16:52;64.68;;;37.38;;
80195;SDS011;69516;42.050;21.516;2024-02-04T08:19:18;62.75;;;37.33;;
80195;SDS011;69516;42.050;21.516;2024-02-04T08:21:44;64.88;;;39.05;;
80195;SDS011;69516;42.050;21.516;2024-02-04T08:24:11;74.60;;;41.58;;
80195;SDS011;69516;42.050;21.516;2024-02-04T08:26:37;76.40;;;41.25;;
80195;SDS011;69516;42.050;21.516;2024-02-04T08:29:03;77.22;;;43.55;;
80195;SDS011;69516;42.050;21.516;2024-02-04T08:31:31;67.43;;;41.40;;
80195;SDS011;69516;42.050;21.516;2024-02-04T08:34:00;69.13;;;41.65;;
80195;SDS011;69516;42.050;21.516;2024-02-04T08:36:28;73.13;;;45.95;;
80195;SDS011;69516;42.050;21.516;2024-02-04T08:38:56;71.35;;;43.13;;
80195;SDS011;69516;42.050;21.516;2024-02-04T08:41:22;65.68;;;40.53;;
80195;SDS011;69516;42.050;21.516;2024-02-04T08:43:48;74.43;;;42.50;;
80195;SDS011;69516;42.050;21.516;2024-02-04T08:46:14;66.75;;;40.40;;
80195;SDS011;69516;42.050;21.516;2024-02-04T08:48:41;71.80;;;43.30;;
80195;SDS011;69516;42.050;21.516;2024-02-04T08:51:10;76.57;;;44.50;;
80195;SDS011;69516;42.050;21.516;2024-02-04T08:53:37;74.15;;;45.17;;
80195;SDS011;69516;42.050;21.516;2024-02-04T08:58:51;80.43;;;46.53;;
80195;SDS011;69516;42.050;21.516;2024-02-04T09:01:18;77.00;;;43.83;;
80195;SDS011;69516;42.050;21.516;2024-02-04T09:03:45;82.43;;;48.92;;
80195;SDS011;69516;42.050;21.516;2024-02-04T09:06:11;75.45;;;42.80;;
80195;SDS011;69516;42.050;21.516;2024-02-04T09:08:37;77.32;;;45.30;;
80195;SDS011;69516;42.050;21.516;2024-02-04T09:11:03;69.32;;;41.88;;
80195;SDS011;69516;42.050;21.516;2024-02-04T09:13:29;65.10;;;37.92;;
80195;SDS011;69516;42.050;21.516;2024-02-04T09:15:55;58.50;;;37.22;;
80195;SDS011;69516;42.050;21.516;2024-02-04T09:18:21;57.03;;;34.55;;
80195;SDS011;69516;42.050;21.516;2024-02-04T09:20:48;60.33;;;36.67;;
80195;SDS011;69516;42.050;21.516;2024-02-04T09:23:14;58.10;;;33.90;;
80195;SDS011;69516;42.050;21.516;2024-02-04T09:25:40;58.85;;;35.47;;
80195;SDS011;69516;42.050;21.516;2024-02-04T09:28:06;64.38;;;39.17;;
80195;SDS011;69516;42.050;21.516;2024-02-04T09:30:32;59.45;;;37.45;;
80195;SDS011;69516;42.050;21.516;2024-02-04T09:32:58;69.18;;;41.17;;
80195;SDS011;69516;42.050;21.516;2024-02-04T09:35:24;65.88;;;38.90;;
80195;SDS011;69516;42.050;21.516;2024-02-04T09:37:50;65.95;;;39.75;;
80195;SDS011;69516;42.050;21.516;2024-02-04T09:40:17;59.42;;;38.15;;
80195;SDS011;69516;42.050;21.516;2024-02-04T09:42:44;56.95;;;34.97;;
80195;SDS011;69516;42.050;21.516;2024-02-04T09:45:10;54.22;;;33.58;;
80195;SDS011;69516;42.050;21.516;2024-02-04T09:47:38;57.42;;;34.38;;
80195;SDS011;69516;42.050;21.516;2024-02-04T09:50:06;59.70;;;34.90;;
80195;SDS011;69516;42.050;21.516;2024-02-04T09:52:33;42.75;;;27.25;;
80195;SDS011;69516;42.050;21.516;2024-02-04T09:55:00;47.10;;;28.33;;
80195;SDS011;69516;42.050;21.516;2024-02-04T09:57:27;48.70;;;29.50;;
80195;SDS011;69516;42.050;21.516;2024-02-04T09:59:54;43.47;;;28.05;;
80195;SDS011;69516;42.050;21.516;2024-02-04T10:02:20;43.35;;;26.75;;
80195;SDS011;69516;42.050;21.516;2024-02-04T10:04:47;45.50;;;26.30;;
80195;SDS011;69516;42.050;21.516;2024-02-04T10:07:13;45.58;;;26.75;;
80195;SDS011;69516;42.050;21.516;2024-02-04T10:09:42;42.85;;;26.25;;
80195;SDS011;69516;42.050;21.516;2024-02-04T10:12:08;44.47;;;28.58;;
80195;SDS011;69516;42.050;21.516;2024-02-04T10:14:34;42.67;;;27.17;;
80195;SDS011;69516;42.050;21.516;2024-02-04T10:17:01;42.38;;;27.52;;
80195;SDS011;69516;42.050;21.516;2024-02-04T10:19:27;37.40;;;24.70;;
80195;SDS011;69516;42.050;21.516;2024-02-04T10:22:00;40.10;;;24.83;;
80195;SDS011;69516;42.050;21.516;2024-02-04T10:24:27;33.13;;;22.38;;
80195;SDS011;69516;42.050;21.516;2024-02-04T10:26:54;23.35;;;15.98;;
80195;SDS011;69516;42.050;21.516;2024-02-04T10:29:20;19.38;;;12.63;;
80195;SDS011;69516;42.050;21.516;2024-02-04T10:31:46;27.75;;;15.10;;
80195;SDS011;69516;42.050;21.516;2024-02-04T10:34:13;23.58;;;14.10;;
80195;SDS011;69516;42.050;21.516;2024-02-04T10:36:39;23.33;;;14.38;;
80195;SDS011;69516;42.050;21.516;2024-02-04T10:39:05;21.38;;;12.00;;
80195;SDS011;69516;42.050;21.516;2024-02-04T10:41:31;20.63;;;12.05;;
80195;SDS011;69516;42.050;21.516;2024-02-04T10:44:00;19.83;;;12.63;;
80195;SDS011;69516;42.050;21.516;2024-02-04T10:46:30;15.10;;;9.85;;
80195;SDS011;69516;42.050;21.516;2024-02-04T10:48:58;12.27;;;7.93;;
80195;SDS011;69516;42.050;21.516;2024-02-04T10:51:25;15.73;;;8.32;;
80195;SDS011;69516;42.050;21.516;2024-02-04T10:53:53;14.35;;;6.65;;
80195;SDS011;69516;42.050;21.516;2024-02-04T10:56:29;9.52;;;5.28;;
80195;SDS011;69516;42.050;21.516;2024-02-04T10:58:56;9.73;;;5.90;;
80195;SDS011;69516;42.050;21.516;2024-02-04T11:01:25;12.60;;;6.47;;
80195;SDS011;69516;42.050;21.516;2024-02-04T11:03:51;14.13;;;6.93;;
80195;SDS011;69516;42.050;21.516;2024-02-04T11:06:20;12.10;;;6.97;;
80195;SDS011;69516;42.050;21.516;2024-02-04T11:08:46;13.88;;;6.35;;
80195;SDS011;69516;42.050;21.516;2024-02-04T11:11:12;11.23;;;6.43;;
80195;SDS011;69516;42.050;21.516;2024-02-04T11:13:39;10.82;;;5.38;;
80195;SDS011;69516;42.050;21.516;2024-02-04T11:16:07;12.55;;;5.05;;
80195;SDS011;69516;42.050;21.516;2024-02-04T11:21:47;13.77;;;7.18;;
80195;SDS011;69516;42.050;21.516;2024-02-04T11:24:10;17.05;;;7.82;;
80195;SDS011;69516;42.050;21.516;2024-02-04T11:26:40;15.38;;;7.90;;
80195;SDS011;69516;42.050;21.516;2024-02-04T11:29:07;21.10;;;11.13;;
80195;SDS011;69516;42.050;21.516;2024-02-04T11:31:38;25.40;;;15.07;;
80195;SDS011;69516;42.050;21.516;2024-02-04T11:34:05;26.65;;;15.38;;
80195;SDS011;69516;42.050;21.516;2024-02-04T11:36:37;26.88;;;15.70;;
80195;SDS011;69516;42.050;21.516;2024-02-04T11:39:11;26.65;;;16.00;;
80195;SDS011;69516;42.050;21.516;2024-02-04T11:41:49;28.15;;;17.65;;
80195;SDS011;69516;42.050;21.516;2024-02-04T11:44:22;28.33;;;16.38;;
80195;SDS011;69516;42.050;21.516;2024-02-04T11:46:49;30.35;;;20.08;;
80195;SDS011;69516;42.050;21.516;2024-02-04T11:49:15;31.77;;;20.10;;
80195;SDS011;69516;42.050;21.516;2024-02-04T11:51:44;35.35;;;23.48;;
80195;SDS011;69516;42.050;21.516;2024-02-04T11:54:10;39.70;;;24.88;;
80195;SDS011;69516;42.050;21.516;2024-02-04T11:56:39;35.60;;;22.35;;
80195;SDS011;69516;42.050;21.516;2024-02-04T11:59:06;36.53;;;23.75;;
80195;SDS011;69516;42.050;21.516;2024-02-04T12:01:33;30.33;;;19.85;;
80195;SDS011;69516;42.050;21.516;2024-02-04T12:04:09;34.22;;;22.00;;
80195;SDS011;69516;42.050;21.516;2024-02-04T12:06:36;35.42;;;22.83;;
80195;SDS011;69516;42.050;21.516;2024-02-04T12:09:02;36.65;;;21.67;;
80195;SDS011;69516;42.050;21.516;2024-02-04T12:11:29;37.55;;;22.13;;
80195;SDS011;69516;42.050;21.516;2024-02-04T12:13:56;35.38;;;22.98;;
80195;SDS011;69516;42.050;21.516;2024-02-04T12:16:22;34.20;;;21.75;;
80195;SDS011;69516;42.050;21.516;2024-02-04T12:18:49;37.50;;;24.98;;
80195;SDS011;69516;42.050;21.516;2024-02-04T12:21:15;35.88;;;26.50;;
80195;SDS011;69516;42.050;21.516;2024-02-04T12:23:41;39.38;;;24.55;;
80195;SDS011;69516;42.050;21.516;2024-02-04T12:26:07;39.45;;;25.92;;
80195;SDS011;69516;42.050;21.516;2024-02-04T12:28:34;42.30;;;26.80;;
80195;SDS011;69516;42.050;21.516;2024-02-04T12:31:00;42.00;;;28.33;;
80195;SDS011;69516;42.050;21.516;2024-02-04T12:33:26;42.72;;;30.80;;
80195;SDS011;69516;42.050;21.516;2024-02-04T12:35:52;51.80;;;33.90;;
80195;SDS011;69516;42.050;21.516;2024-02-04T12:40:47;43.08;;;27.70;;
80195;SDS011;69516;42.050;21.516;2024-02-04T12:43:13;41.70;;;26.40;;
80195;SDS011;69516;42.050;21.516;2024-02-04T12:45:40;47.25;;;29.75;;
80195;SDS011;69516;42.050;21.516;2024-02-04T12:48:06;42.20;;;27.13;;
80195;SDS011;69516;42.050;21.516;2024-02-04T12:50:32;38.55;;;25.38;;
80195;SDS011;69516;42.050;21.516;2024-02-04T12:53:06;40.42;;;26.40;;
80195;SDS011;69516;42.050;21.516;2024-02-04T12:55:33;41.30;;;25.52;;
80195;SDS011;69516;42.050;21.516;2024-02-04T12:58:17;35.50;;;23.50;;
80195;SDS011;69516;42.050;21.516;2024-02-04T13:00:44;34.25;;;22.17;;
80195;SDS011;69516;42.050;21.516;2024-02-04T13:03:10;36.40;;;22.15;;
80195;SDS011;69516;42.050;21.516;2024-02-04T13:05:36;42.42;;;24.60;;
80195;SDS011;69516;42.050;21.516;2024-02-04T13:08:03;35.35;;;23.77;;
80195;SDS011;69516;42.050;21.516;2024-02-04T13:10:31;43.47;;;25.45;;
80195;SDS011;69516;42.050;21.516;2024-02-04T13:13:04;36.15;;;25.95;;
80195;SDS011;69516;42.050;21.516;2024-02-04T13:15:39;43.05;;;25.27;;
80195;SDS011;69516;42.050;21.516;2024-02-04T13:18:05;36.05;;;25.30;;
80195;SDS011;69516;42.050;21.516;2024-02-04T13:20:32;35.80;;;23.35;;
80195;SDS011;69516;42.050;21.516;2024-02-04T13:22:58;33.42;;;23.30;;
80195;SDS011;69516;42.050;21.516;2024-02-04T13:25:30;32.80;;;21.60;;
80195;SDS011;69516;42.050;21.516;2024-02-04T13:27:56;34.58;;;22.17;;
80195;SDS011;69516;42.050;21.516;2024-02-04T13:30:23;35.35;;;22.88;;
80195;SDS011;69516;42.050;21.516;2024-02-04T13:32:49;33.47;;;21.80;;
80195;SDS011;69516;42.050;21.516;2024-02-04T13:35:16;32.10;;;20.77;;
80195;SDS011;69516;42.050;21.516;2024-02-04T13:37:46;30.33;;;19.40;;
80195;SDS011;69516;42.050;21.516;2024-02-04T13:40:13;31.42;;;19.20;;
80195;SDS011;69516;42.050;21.516;2024-02-04T13:42:39;28.98;;;17.17;;
80195;SDS011;69516;42.050;21.516;2024-02-04T13:45:06;29.77;;;17.55;;
80195;SDS011;69516;42.050;21.516;2024-02-04T13:47:32;30.33;;;20.48;;
80195;SDS011;69516;42.050;21.516;2024-02-04T13:49:58;41.63;;;28.50;;
80195;SDS011;69516;42.050;21.516;2024-02-04T13:52:24;41.90;;;25.95;;
80195;SDS011;69516;42.050;21.516;2024-02-04T13:54:50;28.17;;;19.55;;
80195;SDS011;69516;42.050;21.516;2024-02-04T13:57:17;31.75;;;20.40;;
80195;SDS011;69516;42.050;21.516;2024-02-04T13:59:43;32.72;;;20.95;;
80195;SDS011;69516;42.050;21.516;2024-02-04T14:02:09;30.73;;;20.98;;
80195;SDS011;69516;42.050;21.516;2024-02-04T14:04:35;35.28;;;23.15;;
80195;SDS011;69516;42.050;21.516;2024-02-04T14:07:02;31.10;;;20.55;;
80195;SDS011;69516;42.050;21.516;2024-02-04T14:09:28;29.73;;;17.42;;
80195;SDS011;69516;42.050;21.516;2024-02-04T14:11:54;28.38;;;17.90;;
80195;SDS011;69516;42.050;21.516;2024-02-04T14:14:22;29.83;;;18.30;;
80195;SDS011;69516;42.050;21.516;2024-02-04T14:16:48;27.65;;;17.67;;
80195;SDS011;69516;42.050;21.516;2024-02-04T14:19:14;30.70;;;20.27;;
80195;SDS011;69516;42.050;21.516;2024-02-04T14:21:41;33.25;;;20.95;;